Gas Snapper — V7TZ3 — position and weather

sailwx.info

Track history (hours):
 
Tides and Currents Weather Stations Pressure Air Temp Water Temp Dewpoint Dewpoint Depression Visibility Wind Speed Wind Dir Waves Ship Positions

Gas Snapper

Last reported at 2015-Jul-31 12:08 UTC. Time now 2015-Jul-31 19:27 UTC.
Position N 45°18' E 031°16'.

Length 174 m; draft 6.4 m.

Type: Ship (hazmat cat D). MMSI: 538003911.

Date/timePositionNaut miles runAvg speedWind from/ knotsBaromVisibWave heightAir tempDewpointWater temp
2015-Jul-31 12:08N 45°18' E 031°16'915.4
2015-Jul-31 11:32N 45°09' E 031°17'3315.5
2015-Jul-31 09:23N 44°35' E 031°20'1215.2
2015-Jul-31 08:33N 44°23' E 031°21'1914.4
2015-Jul-31 07:13N 44°04' E 031°17'  
2015-Jul-28 15:20N 38°21' E 024°55'1216.1
2015-Jul-28 14:34N 38°10' E 024°48'1716.4
2015-Jul-28 13:32N 37°55' E 024°38'1616.8
2015-Jul-28 12:33N 37°39' E 024°31'1916.3
2015-Jul-28 11:25N 37°24' E 024°17'3716.0
2015-Jul-28 09:06N 36°49' E 024°02'915.9
2015-Jul-28 08:34N 36°42' E 023°56'1616.0
2015-Jul-28 07:34N 36°33' E 023°40'1615.7
2015-Jul-28 06:33N 36°25' E 023°23'1615.6
2015-Jul-28 05:32N 36°23' E 023°03'38916.8
2015-Jul-27 06:24N 36°22' E 014°60'1417.0
2015-Jul-27 05:34N 36°23' E 014°42'1717.2
2015-Jul-27 04:34N 36°23' E 014°21'1717.1
2015-Jul-27 03:34N 36°25' E 013°59'1717.3
2015-Jul-27 02:33N 36°31' E 013°39'1717.2
2015-Jul-27 01:33N 36°38' E 013°20'1717.2
2015-Jul-27 00:34N 36°44' E 012°60'1717.0
2015-Jul-26 23:33N 36°49' E 012°39'1717.3
2015-Jul-26 22:33N 36°56' E 012°19'1817.4
2015-Jul-26 21:33N 37°03' E 011°59'1917.0
2015-Jul-26 20:25N 37°11' E 011°37'3517.0
2015-Jul-26 18:23N 37°26' E 010°58'42116.9
2015-Jul-25 17:28N 36°53' E 002°12'8817.1
2015-Jul-25 12:21N 36°38' E 000°24'3817.1
2015-Jul-25 10:07N 36°34' W 000°23'1017.1
2015-Jul-25 09:33N 36°33' W 000°35'1917.2
2015-Jul-25 08:28N 36°30' W 000°58'1617.1
2015-Jul-25 07:34N 36°28' W 001°17'1717.1
2015-Jul-25 06:33N 36°25' W 001°38'1817.1
2015-Jul-25 05:31N 36°23' W 001°60'1717.4
2015-Jul-25 04:33N 36°20' W 002°20'1717.3
2015-Jul-25 03:34N 36°18' W 002°42'1716.8
2015-Jul-25 02:33N 36°16' W 003°02'1716.9
2015-Jul-25 01:33N 36°13' W 003°23'30716.6
2015-Jul-24 07:03N 36°54' W 009°41'1216.8
2015-Jul-24 06:21N 37°06' W 009°45'1817.0
2015-Jul-24 05:19N 37°23' W 009°50'1317.0
2015-Jul-24 04:33N 37°36' W 009°54'1716.9
2015-Jul-24 03:33N 37°52' W 009°58'1716.8
2015-Jul-24 02:33N 38°08' W 010°02'1717.0
2015-Jul-24 01:33N 38°25' W 010°07'1717.0
2015-Jul-24 00:33N 38°42' W 010°12'1717.2
2015-Jul-23 23:33N 38°59' W 010°12'1717.2
2015-Jul-23 22:33N 39°16' W 010°12'1716.9
2015-Jul-23 21:33N 39°33' W 010°12'1717.1
2015-Jul-23 20:33N 39°50' W 010°12'1717.2
2015-Jul-23 19:33N 40°07' W 010°11'57616.4
2015-Jul-22 08:24N 49°05' W 005°22'9615.8
2015-Jul-22 02:20N 49°54' W 003°15'1816.0
2015-Jul-22 01:12N 50°01' W 002°49'1314.9
2015-Jul-22 00:19N 50°04' W 002°29'1514.0
2015-Jul-21 23:15N 50°08' W 002°07'1013.5
2015-Jul-21 22:32N 50°11' W 001°52'1514.0
2015-Jul-21 21:29N 50°15' W 001°30'8817.1
2015-Jul-21 16:22N 50°41' E 000°41'1315.9
2015-Jul-21 15:34N 50°48' E 000°58'1514.8
2015-Jul-21 14:33N 50°58' E 001°15'1414.5
2015-Jul-21 13:34N 51°07' E 001°33'1615.7
2015-Jul-21 12:33N 51°18' E 001°51'  
Track history (hours):
 
Tides and Currents Weather Stations Pressure Air Temp Water Temp Dewpoint Dewpoint Depression Visibility Wind Speed Wind Dir Waves Ship Positions

Gas Snapper

Last reported at 2015-Jul-31 12:08 UTC. Time now 2015-Jul-31 19:27 UTC.
Position N 45°18' E 031°16'.

Length 174 m; draft 6.4 m.

Type: Ship (hazmat cat D). MMSI: 538003911.

Date/timePositionNaut miles runAvg speedWind from/ knotsBaromVisibWave heightAir tempDewpointWater temp
2015-Jul-31 12:08N 45°18' E 031°16'915.4
2015-Jul-31 11:32N 45°09' E 031°17'3315.5
2015-Jul-31 09:23N 44°35' E 031°20'1215.2
2015-Jul-31 08:33N 44°23' E 031°21'1914.4
2015-Jul-31 07:13N 44°04' E 031°17'  
2015-Jul-28 15:20N 38°21' E 024°55'1216.1
2015-Jul-28 14:34N 38°10' E 024°48'1716.4
2015-Jul-28 13:32N 37°55' E 024°38'1616.8
2015-Jul-28 12:33N 37°39' E 024°31'1916.3
2015-Jul-28 11:25N 37°24' E 024°17'3716.0
2015-Jul-28 09:06N 36°49' E 024°02'915.9
2015-Jul-28 08:34N 36°42' E 023°56'1616.0
2015-Jul-28 07:34N 36°33' E 023°40'1615.7
2015-Jul-28 06:33N 36°25' E 023°23'1615.6
2015-Jul-28 05:32N 36°23' E 023°03'38916.8
2015-Jul-27 06:24N 36°22' E 014°60'1417.0
2015-Jul-27 05:34N 36°23' E 014°42'1717.2
2015-Jul-27 04:34N 36°23' E 014°21'1717.1
2015-Jul-27 03:34N 36°25' E 013°59'1717.3
2015-Jul-27 02:33N 36°31' E 013°39'1717.2
2015-Jul-27 01:33N 36°38' E 013°20'1717.2
2015-Jul-27 00:34N 36°44' E 012°60'1717.0
2015-Jul-26 23:33N 36°49' E 012°39'1717.3
2015-Jul-26 22:33N 36°56' E 012°19'1817.4
2015-Jul-26 21:33N 37°03' E 011°59'1917.0
2015-Jul-26 20:25N 37°11' E 011°37'3517.0
2015-Jul-26 18:23N 37°26' E 010°58'42116.9
2015-Jul-25 17:28N 36°53' E 002°12'8817.1
2015-Jul-25 12:21N 36°38' E 000°24'3817.1
2015-Jul-25 10:07N 36°34' W 000°23'1017.1
2015-Jul-25 09:33N 36°33' W 000°35'1917.2
2015-Jul-25 08:28N 36°30' W 000°58'1617.1
2015-Jul-25 07:34N 36°28' W 001°17'1717.1
2015-Jul-25 06:33N 36°25' W 001°38'1817.1
2015-Jul-25 05:31N 36°23' W 001°60'1717.4
2015-Jul-25 04:33N 36°20' W 002°20'1717.3
2015-Jul-25 03:34N 36°18' W 002°42'1716.8
2015-Jul-25 02:33N 36°16' W 003°02'1716.9
2015-Jul-25 01:33N 36°13' W 003°23'30716.6
2015-Jul-24 07:03N 36°54' W 009°41'1216.8
2015-Jul-24 06:21N 37°06' W 009°45'1817.0
2015-Jul-24 05:19N 37°23' W 009°50'1317.0
2015-Jul-24 04:33N 37°36' W 009°54'1716.9
2015-Jul-24 03:33N 37°52' W 009°58'1716.8
2015-Jul-24 02:33N 38°08' W 010°02'1717.0
2015-Jul-24 01:33N 38°25' W 010°07'1717.0
2015-Jul-24 00:33N 38°42' W 010°12'1717.2
2015-Jul-23 23:33N 38°59' W 010°12'1717.2
2015-Jul-23 22:33N 39°16' W 010°12'1716.9
2015-Jul-23 21:33N 39°33' W 010°12'1717.1
2015-Jul-23 20:33N 39°50' W 010°12'1717.2
2015-Jul-23 19:33N 40°07' W 010°11'57616.4
2015-Jul-22 08:24N 49°05' W 005°22'9615.8
2015-Jul-22 02:20N 49°54' W 003°15'1816.0
2015-Jul-22 01:12N 50°01' W 002°49'1314.9
2015-Jul-22 00:19N 50°04' W 002°29'1514.0
2015-Jul-21 23:15N 50°08' W 002°07'1013.5
2015-Jul-21 22:32N 50°11' W 001°52'1514.0
2015-Jul-21 21:29N 50°15' W 001°30'8817.1
2015-Jul-21 16:22N 50°41' E 000°41'1315.9
2015-Jul-21 15:34N 50°48' E 000°58'1514.8
2015-Jul-21 14:33N 50°58' E 001°15'1414.5
2015-Jul-21 13:34N 51°07' E 001°33'1615.7
2015-Jul-21 12:33N 51°18' E 001°51'  

Dump ship's entire track history